sensor_id;sensor_type;location;lat;lon;timestamp;pressure;altitude;pressure_sealevel;temperature;humidity
56831;BME280;42713;42.676;23.352;2023-05-02T00:01:49;95089.75;;;14.84;53.81
56831;BME280;42713;42.676;23.352;2023-05-02T00:04:14;95093.97;;;14.80;54.15
56831;BME280;42713;42.676;23.352;2023-05-02T00:06:40;95096.34;;;14.76;54.03
56831;BME280;42713;42.676;23.352;2023-05-02T00:09:07;95095.28;;;14.77;54.28
56831;BME280;42713;42.676;23.352;2023-05-02T00:11:33;95103.97;;;14.73;54.31
56831;BME280;42713;42.676;23.352;2023-05-02T00:13:58;95094.72;;;14.70;54.49
56831;BME280;42713;42.676;23.352;2023-05-02T00:16:24;95094.19;;;14.73;54.36
56831;BME280;42713;42.676;23.352;2023-05-02T00:18:49;95099.75;;;14.72;54.61
56831;BME280;42713;42.676;23.352;2023-05-02T00:21:15;95094.19;;;14.68;54.62
56831;BME280;42713;42.676;23.352;2023-05-02T00:23:40;95099.19;;;14.70;54.71
56831;BME280;42713;42.676;23.352;2023-05-02T00:26:09;95099.47;;;14.68;55.22
56831;BME280;42713;42.676;23.352;2023-05-02T00:28:35;95097.31;;;14.65;55.25
56831;BME280;42713;42.676;23.352;2023-05-02T00:31:01;95101.78;;;14.64;55.04
56831;BME280;42713;42.676;23.352;2023-05-02T00:33:26;95111.53;;;14.59;55.31
56831;BME280;42713;42.676;23.352;2023-05-02T00:35:52;95106.22;;;14.54;55.35
56831;BME280;42713;42.676;23.352;2023-05-02T00:38:17;95114.94;;;14.54;54.73
56831;BME280;42713;42.676;23.352;2023-05-02T00:40:48;95114.91;;;14.49;55.40
56831;BME280;42713;42.676;23.352;2023-05-02T00:43:14;95121.00;;;14.50;55.22
56831;BME280;42713;42.676;23.352;2023-05-02T00:45:41;95122.25;;;14.42;55.57
56831;BME280;42713;42.676;23.352;2023-05-02T00:48:08;95123.59;;;14.44;55.62
56831;BME280;42713;42.676;23.352;2023-05-02T00:50:37;95125.94;;;14.41;55.53
56831;BME280;42713;42.676;23.352;2023-05-02T00:53:05;95126.44;;;14.38;55.87
56831;BME280;42713;42.676;23.352;2023-05-02T00:55:31;95127.25;;;14.38;55.60
56831;BME280;42713;42.676;23.352;2023-05-02T00:58:02;95128.28;;;14.37;55.81
56831;BME280;42713;42.676;23.352;2023-05-02T01:03:31;95123.25;;;14.36;56.32
56831;BME280;42713;42.676;23.352;2023-05-02T01:08:39;95120.63;;;14.36;56.46
56831;BME280;42713;42.676;23.352;2023-05-02T01:11:14;95123.25;;;14.36;56.37
56831;BME280;42713;42.676;23.352;2023-05-02T01:13:42;95116.44;;;14.35;56.56
56831;BME280;42713;42.676;23.352;2023-05-02T01:16:10;95127.22;;;14.33;56.47
56831;BME280;42713;42.676;23.352;2023-05-02T01:18:38;95124.56;;;14.33;56.51
56831;BME280;42713;42.676;23.352;2023-05-02T01:21:08;95126.16;;;14.34;56.63
56831;BME280;42713;42.676;23.352;2023-05-02T01:24:02;95120.91;;;14.34;57.09
56831;BME280;42713;42.676;23.352;2023-05-02T01:28:59;95111.13;;;14.29;57.46
56831;BME280;42713;42.676;23.352;2023-05-02T01:31:33;95108.22;;;14.26;57.32
56831;BME280;42713;42.676;23.352;2023-05-02T01:34:00;95102.16;;;14.25;57.53
56831;BME280;42713;42.676;23.352;2023-05-02T01:36:29;95104.78;;;14.25;57.48
56831;BME280;42713;42.676;23.352;2023-05-02T01:38:56;95104.00;;;14.25;57.53
56831;BME280;42713;42.676;23.352;2023-05-02T01:41:28;95115.84;;;14.22;57.58
56831;BME280;42713;42.676;23.352;2023-05-02T01:43:56;95117.97;;;14.25;57.50
56831;BME280;42713;42.676;23.352;2023-05-02T01:46:26;95128.75;;;14.24;57.25
56831;BME280;42713;42.676;23.352;2023-05-02T01:48:56;95124.28;;;14.24;57.48
56831;BME280;42713;42.676;23.352;2023-05-02T01:51:26;95125.81;;;14.20;57.50
56831;BME280;42713;42.676;23.352;2023-05-02T01:53:55;95121.81;;;14.12;57.56
56831;BME280;42713;42.676;23.352;2023-05-02T01:56:24;95123.69;;;14.12;58.19
56831;BME280;42713;42.676;23.352;2023-05-02T01:58:51;95122.63;;;14.13;57.94
56831;BME280;42713;42.676;23.352;2023-05-02T02:01:17;95113.91;;;14.12;58.17
56831;BME280;42713;42.676;23.352;2023-05-02T02:03:45;95099.94;;;14.07;57.74
56831;BME280;42713;42.676;23.352;2023-05-02T02:06:12;95107.31;;;14.10;58.09
56831;BME280;42713;42.676;23.352;2023-05-02T02:08:38;95110.72;;;14.05;58.37
56831;BME280;42713;42.676;23.352;2023-05-02T02:11:10;95108.34;;;14.04;58.77
56831;BME280;42713;42.676;23.352;2023-05-02T02:13:40;95105.94;;;14.02;58.33
56831;BME280;42713;42.676;23.352;2023-05-02T02:16:07;95119.09;;;13.97;58.14
56831;BME280;42713;42.676;23.352;2023-05-02T02:18:36;95119.31;;;13.90;58.78
56831;BME280;42713;42.676;23.352;2023-05-02T02:21:06;95114.53;;;13.87;59.14
56831;BME280;42713;42.676;23.352;2023-05-02T02:23:35;95120.34;;;13.84;58.96
56831;BME280;42713;42.676;23.352;2023-05-02T02:26:03;95110.56;;;13.79;59.15
56831;BME280;42713;42.676;23.352;2023-05-02T02:28:29;95116.91;;;13.83;59.16
56831;BME280;42713;42.676;23.352;2023-05-02T02:30:55;95116.06;;;13.78;59.18
56831;BME280;42713;42.676;23.352;2023-05-02T02:33:21;95105.53;;;13.78;59.14
56831;BME280;42713;42.676;23.352;2023-05-02T02:35:54;95115.53;;;13.76;59.42
56831;BME280;42713;42.676;23.352;2023-05-02T02:38:32;95122.91;;;13.74;59.93
56831;BME280;42713;42.676;23.352;2023-05-02T02:41:22;95115.97;;;13.67;59.44
56831;BME280;42713;42.676;23.352;2023-05-02T02:52:14;95124.59;;;13.58;59.80
56831;BME280;42713;42.676;23.352;2023-05-02T02:54:57;95121.13;;;13.52;59.93
56831;BME280;42713;42.676;23.352;2023-05-02T02:57:39;95126.38;;;13.47;59.83
56831;BME280;42713;42.676;23.352;2023-05-02T03:00:24;95133.19;;;13.48;59.81
56831;BME280;42713;42.676;23.352;2023-05-02T03:02:51;95135.31;;;13.46;59.63
56831;BME280;42713;42.676;23.352;2023-05-02T03:05:18;95132.63;;;13.41;60.27
56831;BME280;42713;42.676;23.352;2023-05-02T03:07:46;95141.53;;;13.39;60.42
56831;BME280;42713;42.676;23.352;2023-05-02T03:10:11;95137.56;;;13.37;60.23
56831;BME280;42713;42.676;23.352;2023-05-02T03:12:37;95141.97;;;13.31;60.24
56831;BME280;42713;42.676;23.352;2023-05-02T03:15:17;95145.41;;;13.32;60.03
56831;BME280;42713;42.676;23.352;2023-05-02T03:17:48;95148.28;;;13.30;60.40
56831;BME280;42713;42.676;23.352;2023-05-02T03:20:14;95159.31;;;13.27;61.04
56831;BME280;42713;42.676;23.352;2023-05-02T03:22:40;95163.47;;;13.23;60.92
56831;BME280;42713;42.676;23.352;2023-05-02T03:25:06;95156.13;;;13.25;60.58
56831;BME280;42713;42.676;23.352;2023-05-02T03:27:31;95163.47;;;13.23;60.95
56831;BME280;42713;42.676;23.352;2023-05-02T03:29:57;95161.63;;;13.23;60.78
56831;BME280;42713;42.676;23.352;2023-05-02T03:32:22;95163.72;;;13.21;60.83
56831;BME280;42713;42.676;23.352;2023-05-02T03:34:48;95166.09;;;13.23;61.36
56831;BME280;42713;42.676;23.352;2023-05-02T03:37:13;95165.00;;;13.19;60.91
56831;BME280;42713;42.676;23.352;2023-05-02T03:39:39;95162.13;;;13.20;61.08
56831;BME280;42713;42.676;23.352;2023-05-02T03:42:04;95157.84;;;13.14;61.02
56831;BME280;42713;42.676;23.352;2023-05-02T03:44:30;95165.53;;;13.21;61.44
56831;BME280;42713;42.676;23.352;2023-05-02T03:46:55;95166.09;;;13.23;61.18
56831;BME280;42713;42.676;23.352;2023-05-02T03:49:21;95163.94;;;13.20;61.24
56831;BME280;42713;42.676;23.352;2023-05-02T03:51:46;95172.94;;;13.24;60.99
56831;BME280;42713;42.676;23.352;2023-05-02T03:54:12;95177.16;;;13.25;61.95
56831;BME280;42713;42.676;23.352;2023-05-02T03:56:37;95172.94;;;13.24;60.87
56831;BME280;42713;42.676;23.352;2023-05-02T03:59:03;95177.41;;;13.23;61.32
56831;BME280;42713;42.676;23.352;2023-05-02T04:01:29;95166.88;;;13.23;61.68
56831;BME280;42713;42.676;23.352;2023-05-02T04:03:55;95169.56;;;13.29;60.72
56831;BME280;42713;42.676;23.352;2023-05-02T04:06:21;95167.72;;;13.29;60.53
56831;BME280;42713;42.676;23.352;2023-05-02T04:08:47;95169.31;;;13.30;60.73
56831;BME280;42713;42.676;23.352;2023-05-02T04:11:13;95171.72;;;13.32;59.99
56831;BME280;42713;42.676;23.352;2023-05-02T04:13:39;95159.78;;;13.24;60.63
56831;BME280;42713;42.676;23.352;2023-05-02T04:16:04;95176.66;;;13.28;60.60
56831;BME280;42713;42.676;23.352;2023-05-02T04:18:30;95173.81;;;13.30;61.28
56831;BME280;42713;42.676;23.352;2023-05-02T04:20:56;95167.19;;;13.27;60.76
56831;BME280;42713;42.676;23.352;2023-05-02T04:23:21;95171.72;;;13.32;60.89
56831;BME280;42713;42.676;23.352;2023-05-02T04:25:53;95174.88;;;13.34;59.70
56831;BME280;42713;42.676;23.352;2023-05-02T04:28:20;95165.91;;;13.30;60.26
56831;BME280;42713;42.676;23.352;2023-05-02T04:30:48;95172.75;;;13.31;60.12
56831;BME280;42713;42.676;23.352;2023-05-02T04:33:14;95179.34;;;13.33;60.25
56831;BME280;42713;42.676;23.352;2023-05-02T04:35:40;95179.09;;;13.35;60.14
56831;BME280;42713;42.676;23.352;2023-05-02T04:38:05;95173.13;;;13.39;60.34
56831;BME280;42713;42.676;23.352;2023-05-02T04:40:32;95179.66;;;13.37;59.66
56831;BME280;42713;42.676;23.352;2023-05-02T04:42:57;95181.81;;;13.40;59.70
56831;BME280;42713;42.676;23.352;2023-05-02T04:45:24;95178.94;;;13.42;61.59
56831;BME280;42713;42.676;23.352;2023-05-02T04:47:49;95186.34;;;13.45;59.68
56831;BME280;42713;42.676;23.352;2023-05-02T04:50:15;95167.66;;;13.46;58.92
56831;BME280;42713;42.676;23.352;2023-05-02T04:52:40;95183.00;;;13.54;59.31
56831;BME280;42713;42.676;23.352;2023-05-02T04:55:06;95182.81;;;13.61;59.35
56831;BME280;42713;42.676;23.352;2023-05-02T04:57:32;95177.25;;;13.58;58.35
56831;BME280;42713;42.676;23.352;2023-05-02T04:59:57;95177.50;;;13.56;58.32
56831;BME280;42713;42.676;23.352;2023-05-02T05:02:23;95184.34;;;13.57;58.46
56831;BME280;42713;42.676;23.352;2023-05-02T05:04:50;95185.44;;;13.61;58.29
56831;BME280;42713;42.676;23.352;2023-05-02T05:07:15;95186.53;;;13.65;58.51
56831;BME280;42713;42.676;23.352;2023-05-02T05:09:41;95183.91;;;13.65;58.28
56831;BME280;42713;42.676;23.352;2023-05-02T05:12:06;95182.88;;;13.72;57.71
56831;BME280;42713;42.676;23.352;2023-05-02T05:14:33;95180.75;;;13.68;58.07
56831;BME280;42713;42.676;23.352;2023-05-02T05:16:58;95182.13;;;13.71;57.16
56831;BME280;42713;42.676;23.352;2023-05-02T05:19:23;95178.13;;;13.68;56.90
56831;BME280;42713;42.676;23.352;2023-05-02T05:21:49;95180.47;;;13.65;55.84
56831;BME280;42713;42.676;23.352;2023-05-02T05:24:16;95189.66;;;13.62;55.90
56831;BME280;42713;42.676;23.352;2023-05-02T05:26:41;95181.75;;;13.62;56.28
56831;BME280;42713;42.676;23.352;2023-05-02T05:29:07;95180.47;;;13.65;55.88
56831;BME280;42713;42.676;23.352;2023-05-02T05:31:32;95192.56;;;13.66;55.65
56831;BME280;42713;42.676;23.352;2023-05-02T05:33:58;95196.75;;;13.62;55.28
56831;BME280;42713;42.676;23.352;2023-05-02T05:36:24;95185.91;;;13.58;55.51
56831;BME280;42713;42.676;23.352;2023-05-02T05:38:50;95190.16;;;13.59;56.11
56831;BME280;42713;42.676;23.352;2023-05-02T05:41:16;95196.22;;;13.60;56.29
56831;BME280;42713;42.676;23.352;2023-05-02T05:43:42;95189.91;;;13.61;56.26
56831;BME280;42713;42.676;23.352;2023-05-02T05:46:07;95200.94;;;13.58;56.39
56831;BME280;42713;42.676;23.352;2023-05-02T05:48:32;95200.38;;;13.56;56.05
56831;BME280;42713;42.676;23.352;2023-05-02T05:51:02;95195.94;;;13.56;57.07
56831;BME280;42713;42.676;23.352;2023-05-02T05:53:28;95208.88;;;13.63;56.55
56831;BME280;42713;42.676;23.352;2023-05-02T05:55:54;95206.84;;;13.70;56.04
56831;BME280;42713;42.676;23.352;2023-05-02T05:58:21;95203.66;;;13.68;55.75
56831;BME280;42713;42.676;23.352;2023-05-02T06:00:46;95207.63;;;13.70;55.70
56831;BME280;42713;42.676;23.352;2023-05-02T06:03:12;95206.88;;;13.75;56.87
56831;BME280;42713;42.676;23.352;2023-05-02T06:05:37;95214.09;;;13.85;55.36
56831;BME280;42713;42.676;23.352;2023-05-02T06:08:03;95217.78;;;13.89;55.15
56831;BME280;42713;42.676;23.352;2023-05-02T06:10:30;95209.41;;;13.92;55.10
56831;BME280;42713;42.676;23.352;2023-05-02T06:12:55;95217.31;;;13.97;55.40
56831;BME280;42713;42.676;23.352;2023-05-02T06:15:21;95210.78;;;14.00;54.83
56831;BME280;42713;42.676;23.352;2023-05-02T06:17:47;95209.41;;;13.97;54.50
56831;BME280;42713;42.676;23.352;2023-05-02T06:20:12;95205.81;;;14.04;54.69
56831;BME280;42713;42.676;23.352;2023-05-02T06:22:38;95205.34;;;14.12;54.19
56831;BME280;42713;42.676;23.352;2023-05-02T06:25:04;95202.66;;;14.07;53.62
56831;BME280;42713;42.676;23.352;2023-05-02T06:27:31;95197.91;;;14.04;53.90
56831;BME280;42713;42.676;23.352;2023-05-02T06:29:56;95195.81;;;14.06;53.80
56831;BME280;42713;42.676;23.352;2023-05-02T06:32:22;95209.97;;;13.99;53.93
56831;BME280;42713;42.676;23.352;2023-05-02T06:34:47;95211.00;;;13.98;53.55
56831;BME280;42713;42.676;23.352;2023-05-02T06:37:13;95195.50;;;14.02;53.91
56831;BME280;42713;42.676;23.352;2023-05-02T06:39:38;95203.94;;;13.99;53.27
56831;BME280;42713;42.676;23.352;2023-05-02T06:42:04;95204.69;;;13.94;53.38
56831;BME280;42713;42.676;23.352;2023-05-02T06:44:29;95210.53;;;14.01;53.24
56831;BME280;42713;42.676;23.352;2023-05-02T06:46:55;95193.19;;;14.06;53.00
56831;BME280;42713;42.676;23.352;2023-05-02T06:49:25;95194.25;;;14.10;53.16
56831;BME280;42713;42.676;23.352;2023-05-02T06:51:50;95193.00;;;14.18;53.89
56831;BME280;42713;42.676;23.352;2023-05-02T06:54:16;95188.78;;;14.22;53.97
56831;BME280;42713;42.676;23.352;2023-05-02T06:56:41;95194.69;;;14.34;53.46
56831;BME280;42713;42.676;23.352;2023-05-02T06:59:07;95191.81;;;14.41;52.32
56831;BME280;42713;42.676;23.352;2023-05-02T07:01:33;95191.84;;;14.46;51.93
56831;BME280;42713;42.676;23.352;2023-05-02T07:03:59;95196.38;;;14.56;52.11
56831;BME280;42713;42.676;23.352;2023-05-02T07:06:29;95184.81;;;14.62;51.78
56831;BME280;42713;42.676;23.352;2023-05-02T07:08:55;95182.78;;;14.69;51.45
56831;BME280;42713;42.676;23.352;2023-05-02T07:11:20;95188.84;;;14.75;51.10
56831;BME280;42713;42.676;23.352;2023-05-02T07:13:47;95180.16;;;14.74;50.15
56831;BME280;42713;42.676;23.352;2023-05-02T07:16:13;95192.84;;;14.83;50.15
56831;BME280;42713;42.676;23.352;2023-05-02T07:18:39;95189.72;;;14.86;50.27
56831;BME280;42713;42.676;23.352;2023-05-02T07:21:04;95192.34;;;14.86;49.58
56831;BME280;42713;42.676;23.352;2023-05-02T07:23:30;95197.63;;;14.91;49.08
56831;BME280;42713;42.676;23.352;2023-05-02T07:25:55;95193.72;;;14.93;49.05
56831;BME280;42713;42.676;23.352;2023-05-02T07:28:21;95192.63;;;14.94;49.12
56831;BME280;42713;42.676;23.352;2023-05-02T07:30:46;95195.56;;;14.98;48.93
56831;BME280;42713;42.676;23.352;2023-05-02T07:33:14;95188.44;;;15.04;48.57
56831;BME280;42713;42.676;23.352;2023-05-02T07:35:39;95188.47;;;15.09;48.96
56831;BME280;42713;42.676;23.352;2023-05-02T07:38:05;95173.72;;;15.13;48.04
56831;BME280;42713;42.676;23.352;2023-05-02T07:40:30;95184.78;;;15.15;48.13
56831;BME280;42713;42.676;23.352;2023-05-02T07:42:57;95194.84;;;15.23;48.39
56831;BME280;42713;42.676;23.352;2023-05-02T07:45:22;95191.19;;;15.30;47.96
56831;BME280;42713;42.676;23.352;2023-05-02T07:47:48;95197.78;;;15.32;47.61
56831;BME280;42713;42.676;23.352;2023-05-02T07:50:13;95185.94;;;15.40;47.64
56831;BME280;42713;42.676;23.352;2023-05-02T07:52:39;95189.09;;;15.42;47.12
56831;BME280;42713;42.676;23.352;2023-05-02T07:55:04;95191.22;;;15.50;47.02
56831;BME280;42713;42.676;23.352;2023-05-02T07:57:30;95191.75;;;15.47;46.89
56831;BME280;42713;42.676;23.352;2023-05-02T07:59:56;95182.53;;;15.55;46.92
56831;BME280;42713;42.676;23.352;2023-05-02T08:02:21;95191.25;;;15.66;46.84
56831;BME280;42713;42.676;23.352;2023-05-02T08:04:48;95190.72;;;15.74;45.53
56831;BME280;42713;42.676;23.352;2023-05-02T08:07:14;95179.63;;;15.77;46.39
56831;BME280;42713;42.676;23.352;2023-05-02T08:09:40;95182.81;;;15.84;45.72
56831;BME280;42713;42.676;23.352;2023-05-02T08:12:05;95196.31;;;15.93;44.90
56831;BME280;42713;42.676;23.352;2023-05-02T08:14:31;95190.25;;;15.98;45.33
56831;BME280;42713;42.676;23.352;2023-05-02T08:16:57;95190.50;;;16.01;44.67
56831;BME280;42713;42.676;23.352;2023-05-02T08:19:22;95186.81;;;16.02;45.44
56831;BME280;42713;42.676;23.352;2023-05-02T08:21:48;95189.97;;;16.05;44.34
56831;BME280;42713;42.676;23.352;2023-05-02T08:24:13;95187.31;;;16.15;44.27
56831;BME280;42713;42.676;23.352;2023-05-02T08:26:39;95177.00;;;16.18;44.35
56831;BME280;42713;42.676;23.352;2023-05-02T08:29:04;95179.91;;;16.27;44.18
56831;BME280;42713;42.676;23.352;2023-05-02T08:31:30;95180.16;;;16.36;43.63
56831;BME280;42713;42.676;23.352;2023-05-02T08:33:55;95186.75;;;16.44;43.49
56831;BME280;42713;42.676;23.352;2023-05-02T08:36:21;95184.63;;;16.46;43.19
56831;BME280;42713;42.676;23.352;2023-05-02T08:38:47;95181.16;;;16.56;43.48
56831;BME280;42713;42.676;23.352;2023-05-02T08:41:15;95183.78;;;16.61;43.35
56831;BME280;42713;42.676;23.352;2023-05-02T08:43:44;95179.00;;;16.73;42.70
56831;BME280;42713;42.676;23.352;2023-05-02T08:46:12;95178.47;;;16.76;42.55
56831;BME280;42713;42.676;23.352;2023-05-02T08:48:43;95179.47;;;16.91;42.54
56831;BME280;42713;42.676;23.352;2023-05-02T08:51:14;95182.91;;;17.02;43.01
56831;BME280;42713;42.676;23.352;2023-05-02T08:53:40;95179.19;;;17.03;42.50
56831;BME280;42713;42.676;23.352;2023-05-02T08:56:07;95181.03;;;17.07;41.78
56831;BME280;42713;42.676;23.352;2023-05-02T08:58:37;95183.63;;;17.13;41.66
56831;BME280;42713;42.676;23.352;2023-05-02T09:01:09;95171.19;;;17.18;42.13
56831;BME280;42713;42.676;23.352;2023-05-02T09:03:38;95167.94;;;17.26;40.76
56831;BME280;42713;42.676;23.352;2023-05-02T09:06:25;95163.47;;;17.27;41.55
56831;BME280;42713;42.676;23.352;2023-05-02T09:08:51;95168.94;;;17.36;41.47
56831;BME280;42713;42.676;23.352;2023-05-02T09:11:17;95167.06;;;17.47;40.51
56831;BME280;42713;42.676;23.352;2023-05-02T09:16:20;95165.34;;;17.61;41.16
56831;BME280;42713;42.676;23.352;2023-05-02T09:18:57;95158.91;;;17.72;40.14
56831;BME280;42713;42.676;23.352;2023-05-02T09:21:24;95162.63;;;17.77;39.91
56831;BME280;42713;42.676;23.352;2023-05-02T09:23:55;95159.59;;;17.88;39.67
56831;BME280;42713;42.676;23.352;2023-05-02T09:28:49;95156.28;;;18.07;38.94
56831;BME280;42713;42.676;23.352;2023-05-02T09:31:19;95167.13;;;18.11;38.42
56831;BME280;42713;42.676;23.352;2023-05-02T09:33:50;95152.25;;;18.15;38.49
56831;BME280;42713;42.676;23.352;2023-05-02T09:36:17;95153.53;;;18.17;37.98
56831;BME280;42713;42.676;23.352;2023-05-02T09:38:45;95156.50;;;18.11;37.83
56831;BME280;42713;42.676;23.352;2023-05-02T09:41:11;95150.91;;;18.17;38.13
56831;BME280;42713;42.676;23.352;2023-05-02T09:43:38;95147.69;;;18.20;38.09
56831;BME280;42713;42.676;23.352;2023-05-02T09:46:06;95144.69;;;18.27;37.91
56831;BME280;42713;42.676;23.352;2023-05-02T09:51:19;95145.94;;;18.35;37.57
56831;BME280;42713;42.676;23.352;2023-05-02T09:53:45;95144.47;;;18.48;36.94
56831;BME280;42713;42.676;23.352;2023-05-02T09:56:10;95133.53;;;18.55;37.86
56831;BME280;42713;42.676;23.352;2023-05-02T09:58:36;95133.22;;;18.61;36.99
56831;BME280;42713;42.676;23.352;2023-05-02T10:01:01;95126.84;;;18.62;37.38
56831;BME280;42713;42.676;23.352;2023-05-02T10:03:28;95134.03;;;18.81;36.65
56831;BME280;42713;42.676;23.352;2023-05-02T10:05:55;95126.81;;;18.87;36.54
56831;BME280;42713;42.676;23.352;2023-05-02T10:08:23;95126.72;;;18.92;37.48
56831;BME280;42713;42.676;23.352;2023-05-02T10:10:52;95121.09;;;18.98;35.81
56831;BME280;42713;42.676;23.352;2023-05-02T10:13:23;95121.06;;;19.04;35.90
56831;BME280;42713;42.676;23.352;2023-05-02T10:15:59;95114.66;;;19.05;36.07
56831;BME280;42713;42.676;23.352;2023-05-02T10:18:41;95116.88;;;19.17;35.65
56831;BME280;42713;42.676;23.352;2023-05-02T10:21:11;95113.69;;;19.20;35.50
56831;BME280;42713;42.676;23.352;2023-05-02T10:23:41;95113.28;;;19.26;35.37
56831;BME280;42713;42.676;23.352;2023-05-02T10:26:13;95109.00;;;19.31;35.14
56831;BME280;42713;42.676;23.352;2023-05-02T10:28:41;95096.72;;;19.35;35.31
56831;BME280;42713;42.676;23.352;2023-05-02T10:31:10;95107.19;;;19.45;34.72
56831;BME280;42713;42.676;23.352;2023-05-02T10:33:37;95108.13;;;19.54;35.69
56831;BME280;42713;42.676;23.352;2023-05-02T10:36:04;95094.91;;;19.49;34.29
56831;BME280;42713;42.676;23.352;2023-05-02T10:38:31;95095.63;;;19.55;34.45
56831;BME280;42713;42.676;23.352;2023-05-02T10:41:01;95085.41;;;19.62;34.18
56831;BME280;42713;42.676;23.352;2023-05-02T10:43:30;95094.38;;;19.66;34.81
56831;BME280;42713;42.676;23.352;2023-05-02T10:45:57;95090.56;;;19.72;33.60
56831;BME280;42713;42.676;23.352;2023-05-02T10:48:25;95086.50;;;19.75;34.10
56831;BME280;42713;42.676;23.352;2023-05-02T10:50:53;95079.25;;;19.81;34.25
56831;BME280;42713;42.676;23.352;2023-05-02T10:56:15;95083.34;;;19.92;34.38
56831;BME280;42713;42.676;23.352;2023-05-02T10:58:45;95074.88;;;20.04;33.97
56831;BME280;42713;42.676;23.352;2023-05-02T11:03:54;95070.56;;;20.36;32.74
56831;BME280;42713;42.676;23.352;2023-05-02T11:06:24;95066.75;;;20.42;32.58
56831;BME280;42713;42.676;23.352;2023-05-02T11:08:50;95068.91;;;20.54;32.28
56831;BME280;42713;42.676;23.352;2023-05-02T11:11:41;95075.09;;;20.63;32.35
56831;BME280;42713;42.676;23.352;2023-05-02T11:14:07;95070.97;;;20.71;31.94
56831;BME280;42713;42.676;23.352;2023-05-02T11:24:58;95064.28;;;20.74;31.77
56831;BME280;42713;42.676;23.352;2023-05-02T11:30:00;95055.28;;;20.83;32.14
56831;BME280;42713;42.676;23.352;2023-05-02T11:35:28;95055.47;;;21.01;32.06
56831;BME280;42713;42.676;23.352;2023-05-02T11:37:57;95057.00;;;21.16;31.70
56831;BME280;42713;42.676;23.352;2023-05-02T11:40:24;95053.59;;;21.24;33.48
56831;BME280;42713;42.676;23.352;2023-05-02T11:42:50;95051.66;;;21.39;33.47
56831;BME280;42713;42.676;23.352;2023-05-02T11:45:15;95041.16;;;21.42;32.13
56831;BME280;42713;42.676;23.352;2023-05-02T11:47:41;95043.56;;;21.44;33.16
56831;BME280;42713;42.676;23.352;2023-05-02T11:50:08;95039.66;;;21.50;33.36
56831;BME280;42713;42.676;23.352;2023-05-02T11:52:41;95040.22;;;21.61;33.25
56831;BME280;42713;42.676;23.352;2023-05-02T11:55:10;95040.44;;;21.73;32.91
56831;BME280;42713;42.676;23.352;2023-05-02T11:57:36;95026.22;;;21.78;32.59
56831;BME280;42713;42.676;23.352;2023-05-02T12:00:02;95037.97;;;21.77;32.66
56831;BME280;42713;42.676;23.352;2023-05-02T12:05:06;95031.28;;;21.88;32.58
56831;BME280;42713;42.676;23.352;2023-05-02T12:07:41;95024.72;;;21.95;31.92
56831;BME280;42713;42.676;23.352;2023-05-02T12:10:10;95026.94;;;22.01;32.65
56831;BME280;42713;42.676;23.352;2023-05-02T12:12:36;95018.06;;;22.15;32.21
56831;BME280;42713;42.676;23.352;2023-05-02T12:15:07;95014.78;;;22.27;31.53
56831;BME280;42713;42.676;23.352;2023-05-02T12:17:33;95010.16;;;22.41;31.85
56831;BME280;42713;42.676;23.352;2023-05-02T12:20:05;95008.13;;;22.47;31.55
56831;BME280;42713;42.676;23.352;2023-05-02T12:22:31;95013.00;;;22.53;30.40
56831;BME280;42713;42.676;23.352;2023-05-02T12:24:58;95014.13;;;22.61;30.48
56831;BME280;42713;42.676;23.352;2023-05-02T12:27:23;95008.31;;;22.68;30.44
56831;BME280;42713;42.676;23.352;2023-05-02T12:29:50;95005.66;;;22.77;31.09
56831;BME280;42713;42.676;23.352;2023-05-02T12:32:26;95000.47;;;22.89;30.46
56831;BME280;42713;42.676;23.352;2023-05-02T12:34:52;94996.09;;;23.02;30.54
56831;BME280;42713;42.676;23.352;2023-05-02T12:37:25;94979.91;;;23.16;30.07
56831;BME280;42713;42.676;23.352;2023-05-02T12:39:52;94974.41;;;23.21;29.57
56831;BME280;42713;42.676;23.352;2023-05-02T12:42:20;94969.81;;;23.30;28.96
56831;BME280;42713;42.676;23.352;2023-05-02T12:44:47;94972.78;;;23.46;29.30
56831;BME280;42713;42.676;23.352;2023-05-02T12:47:16;94965.38;;;23.61;28.39
56831;BME280;42713;42.676;23.352;2023-05-02T12:49:52;94964.84;;;23.76;27.88
56831;BME280;42713;42.676;23.352;2023-05-02T12:52:19;94968.25;;;23.95;27.82
56831;BME280;42713;42.676;23.352;2023-05-02T12:54:45;94970.56;;;24.05;27.69
56831;BME280;42713;42.676;23.352;2023-05-02T12:57:31;94974.44;;;24.16;27.49
56831;BME280;42713;42.676;23.352;2023-05-02T12:59:57;94961.38;;;24.15;27.04
56831;BME280;42713;42.676;23.352;2023-05-02T13:02:22;94961.09;;;24.37;26.96
56831;BME280;42713;42.676;23.352;2023-05-02T13:04:48;94960.59;;;24.44;26.40
56831;BME280;42713;42.676;23.352;2023-05-02T13:07:14;94964.44;;;24.55;26.52
56831;BME280;42713;42.676;23.352;2023-05-02T13:09:39;94955.25;;;24.65;26.68
56831;BME280;42713;42.676;23.352;2023-05-02T13:12:05;94961.47;;;24.78;25.89
56831;BME280;42713;42.676;23.352;2023-05-02T13:14:31;94969.13;;;24.89;26.03
56831;BME280;42713;42.676;23.352;2023-05-02T13:16:56;94970.94;;;24.97;25.35
56831;BME280;42713;42.676;23.352;2023-05-02T13:19:22;94970.41;;;25.04;24.84
56831;BME280;42713;42.676;23.352;2023-05-02T13:21:47;94975.72;;;25.12;25.20
56831;BME280;42713;42.676;23.352;2023-05-02T13:24:13;94965.34;;;25.23;24.94
56831;BME280;42713;42.676;23.352;2023-05-02T13:26:39;94969.19;;;25.35;25.46
56831;BME280;42713;42.676;23.352;2023-05-02T13:29:05;94966.56;;;25.59;25.10
56831;BME280;42713;42.676;23.352;2023-05-02T13:31:33;94969.19;;;25.81;24.50
56831;BME280;42713;42.676;23.352;2023-05-02T13:33:59;94961.28;;;26.09;24.48
56831;BME280;42713;42.676;23.352;2023-05-02T13:36:24;94958.69;;;26.37;23.94
56831;BME280;42713;42.676;23.352;2023-05-02T13:38:50;94956.75;;;26.63;23.25